sensor_id;sensor_type;location;lat;lon;timestamp;temperature;humidity
1025;DHT22;501;48.214;11.350;2022-09-27T00:00:24;12.60;45.70
1025;DHT22;501;48.214;11.350;2022-09-27T00:02:50;12.60;46.10
1025;DHT22;501;48.214;11.350;2022-09-27T00:05:16;12.60;46.80
1025;DHT22;501;48.214;11.350;2022-09-27T00:07:43;12.60;46.50
1025;DHT22;501;48.214;11.350;2022-09-27T00:10:09;12.60;45.60
1025;DHT22;501;48.214;11.350;2022-09-27T00:12:35;12.50;47.00
1025;DHT22;501;48.214;11.350;2022-09-27T00:15:01;12.50;48.70
1025;DHT22;501;48.214;11.350;2022-09-27T00:17:28;12.50;48.40
1025;DHT22;501;48.214;11.350;2022-09-27T00:19:54;12.50;48.10
1025;DHT22;501;48.214;11.350;2022-09-27T00:22:22;12.50;46.90
1025;DHT22;501;48.214;11.350;2022-09-27T00:24:49;12.50;48.40
1025;DHT22;501;48.214;11.350;2022-09-27T00:27:15;12.40;47.80
1025;DHT22;501;48.214;11.350;2022-09-27T00:29:40;12.40;48.80
1025;DHT22;501;48.214;11.350;2022-09-27T00:32:06;12.40;48.80
1025;DHT22;501;48.214;11.350;2022-09-27T00:34:32;12.40;47.90
1025;DHT22;501;48.214;11.350;2022-09-27T00:36:57;12.40;47.00
1025;DHT22;501;48.214;11.350;2022-09-27T00:39:23;12.30;47.30
1025;DHT22;501;48.214;11.350;2022-09-27T00:41:49;12.30;48.20
1025;DHT22;501;48.214;11.350;2022-09-27T00:46:57;12.30;49.50
1025;DHT22;501;48.214;11.350;2022-09-27T00:49:24;12.20;49.30
1025;DHT22;501;48.214;11.350;2022-09-27T00:52:07;12.20;49.20
1025;DHT22;501;48.214;11.350;2022-09-27T00:54:36;12.20;51.00
1025;DHT22;501;48.214;11.350;2022-09-27T00:57:04;12.30;51.50
1025;DHT22;501;48.214;11.350;2022-09-27T00:59:43;12.20;51.00
1025;DHT22;501;48.214;11.350;2022-09-27T01:02:10;12.20;51.00
1025;DHT22;501;48.214;11.350;2022-09-27T01:04:37;12.20;51.00
1025;DHT22;501;48.214;11.350;2022-09-27T01:07:04;12.20;49.80
1025;DHT22;501;48.214;11.350;2022-09-27T01:09:29;12.10;50.90
1025;DHT22;501;48.214;11.350;2022-09-27T01:26:15;12.00;53.30
1025;DHT22;501;48.214;11.350;2022-09-27T01:31:48;12.00;54.20
1025;DHT22;501;48.214;11.350;2022-09-27T01:34:25;12.00;53.80
1025;DHT22;501;48.214;11.350;2022-09-27T01:37:03;12.00;53.30
1025;DHT22;501;48.214;11.350;2022-09-27T01:39:51;12.00;53.10
1025;DHT22;501;48.214;11.350;2022-09-27T01:43:10;11.90;53.00
1025;DHT22;501;48.214;11.350;2022-09-27T01:48:06;11.90;54.50
1025;DHT22;501;48.214;11.350;2022-09-27T01:50:38;11.90;55.00
1025;DHT22;501;48.214;11.350;2022-09-27T01:53:09;11.90;51.40
1025;DHT22;501;48.214;11.350;2022-09-27T01:55:37;11.90;51.80
1025;DHT22;501;48.214;11.350;2022-09-27T01:58:21;11.90;52.30
1025;DHT22;501;48.214;11.350;2022-09-27T02:00:49;11.90;52.60
1025;DHT22;501;48.214;11.350;2022-09-27T02:03:27;11.90;55.10
1025;DHT22;501;48.214;11.350;2022-09-27T02:06:03;11.90;55.70
1025;DHT22;501;48.214;11.350;2022-09-27T02:08:36;11.80;55.80
1025;DHT22;501;48.214;11.350;2022-09-27T02:11:11;11.80;57.30
1025;DHT22;501;48.214;11.350;2022-09-27T02:13:39;11.80;57.80
1025;DHT22;501;48.214;11.350;2022-09-27T02:19:00;11.60;60.10
1025;DHT22;501;48.214;11.350;2022-09-27T02:22:15;11.60;61.00
1025;DHT22;501;48.214;11.350;2022-09-27T02:24:28;11.60;62.50
1025;DHT22;501;48.214;11.350;2022-09-27T02:27:16;11.50;63.30
1025;DHT22;501;48.214;11.350;2022-09-27T02:29:51;11.60;64.80
1025;DHT22;501;48.214;11.350;2022-09-27T02:32:17;11.50;64.80
1025;DHT22;501;48.214;11.350;2022-09-27T02:34:44;11.50;65.20
1025;DHT22;501;48.214;11.350;2022-09-27T02:37:11;11.50;66.60
1025;DHT22;501;48.214;11.350;2022-09-27T02:39:37;11.50;65.20
1025;DHT22;501;48.214;11.350;2022-09-27T02:42:04;11.50;67.40
1025;DHT22;501;48.214;11.350;2022-09-27T02:44:30;11.50;67.40
1025;DHT22;501;48.214;11.350;2022-09-27T02:47:24;11.50;67.40
1025;DHT22;501;48.214;11.350;2022-09-27T02:50:06;11.40;69.00
1025;DHT22;501;48.214;11.350;2022-09-27T02:55:55;11.40;68.60
1025;DHT22;501;48.214;11.350;2022-09-27T03:01:11;11.40;69.60
1025;DHT22;501;48.214;11.350;2022-09-27T03:03:44;11.50;70.30
1025;DHT22;501;48.214;11.350;2022-09-27T03:06:13;11.50;70.60
1025;DHT22;501;48.214;11.350;2022-09-27T03:08:40;11.50;70.00
1025;DHT22;501;48.214;11.350;2022-09-27T03:11:06;11.50;69.30
1025;DHT22;501;48.214;11.350;2022-09-27T03:13:32;11.50;69.50
1025;DHT22;501;48.214;11.350;2022-09-27T03:15:59;11.50;68.60
1025;DHT22;501;48.214;11.350;2022-09-27T03:18:24;11.50;68.80
1025;DHT22;501;48.214;11.350;2022-09-27T03:20:52;11.50;70.20
1025;DHT22;501;48.214;11.350;2022-09-27T03:23:18;11.50;70.00
1025;DHT22;501;48.214;11.350;2022-09-27T03:25:44;11.50;69.60
1025;DHT22;501;48.214;11.350;2022-09-27T03:28:11;11.50;70.10
1025;DHT22;501;48.214;11.350;2022-09-27T03:30:37;11.50;70.20
1025;DHT22;501;48.214;11.350;2022-09-27T03:33:03;11.50;70.50
1025;DHT22;501;48.214;11.350;2022-09-27T03:35:29;11.50;70.40
1025;DHT22;501;48.214;11.350;2022-09-27T03:37:55;11.50;69.60
1025;DHT22;501;48.214;11.350;2022-09-27T03:40:20;11.50;70.30
1025;DHT22;501;48.214;11.350;2022-09-27T03:42:46;11.50;70.60
1025;DHT22;501;48.214;11.350;2022-09-27T03:45:14;11.50;69.80
1025;DHT22;501;48.214;11.350;2022-09-27T03:47:40;11.50;66.90
1025;DHT22;501;48.214;11.350;2022-09-27T03:50:07;11.50;66.30
1025;DHT22;501;48.214;11.350;2022-09-27T03:52:34;11.50;63.80
1025;DHT22;501;48.214;11.350;2022-09-27T03:55:00;11.50;65.80
1025;DHT22;501;48.214;11.350;2022-09-27T03:57:26;11.50;66.60
1025;DHT22;501;48.214;11.350;2022-09-27T03:59:51;11.50;65.30
1025;DHT22;501;48.214;11.350;2022-09-27T04:02:17;11.40;63.70
1025;DHT22;501;48.214;11.350;2022-09-27T04:04:42;11.40;65.30
1025;DHT22;501;48.214;11.350;2022-09-27T04:07:09;11.40;63.50
1025;DHT22;501;48.214;11.350;2022-09-27T04:09:35;11.40;63.10
1025;DHT22;501;48.214;11.350;2022-09-27T04:12:02;11.30;65.90
1025;DHT22;501;48.214;11.350;2022-09-27T04:14:28;11.30;64.90
1025;DHT22;501;48.214;11.350;2022-09-27T04:16:54;11.30;65.70
1025;DHT22;501;48.214;11.350;2022-09-27T04:19:20;11.30;64.70
1025;DHT22;501;48.214;11.350;2022-09-27T04:21:45;11.20;64.20
1025;DHT22;501;48.214;11.350;2022-09-27T04:24:11;11.20;63.60
1025;DHT22;501;48.214;11.350;2022-09-27T04:26:37;11.20;66.70
1025;DHT22;501;48.214;11.350;2022-09-27T04:29:04;11.20;66.00
1025;DHT22;501;48.214;11.350;2022-09-27T04:31:30;11.20;65.60
1025;DHT22;501;48.214;11.350;2022-09-27T04:33:56;11.20;67.10
1025;DHT22;501;48.214;11.350;2022-09-27T04:36:25;11.20;67.10
1025;DHT22;501;48.214;11.350;2022-09-27T04:38:53;11.20;67.10
1025;DHT22;501;48.214;11.350;2022-09-27T04:41:20;11.20;65.90
1025;DHT22;501;48.214;11.350;2022-09-27T04:43:46;11.20;66.20
1025;DHT22;501;48.214;11.350;2022-09-27T04:46:13;11.20;65.70
1025;DHT22;501;48.214;11.350;2022-09-27T04:48:39;11.20;66.00
1025;DHT22;501;48.214;11.350;2022-09-27T04:51:05;11.20;67.10
1025;DHT22;501;48.214;11.350;2022-09-27T04:53:31;11.10;65.40
1025;DHT22;501;48.214;11.350;2022-09-27T04:55:58;11.10;65.50
1025;DHT22;501;48.214;11.350;2022-09-27T04:58:24;11.10;62.70
1025;DHT22;501;48.214;11.350;2022-09-27T05:00:50;11.10;62.90
1025;DHT22;501;48.214;11.350;2022-09-27T05:03:22;11.00;64.50
1025;DHT22;501;48.214;11.350;2022-09-27T05:05:48;11.10;64.40
1025;DHT22;501;48.214;11.350;2022-09-27T05:08:13;11.00;64.50
1025;DHT22;501;48.214;11.350;2022-09-27T05:10:39;11.00;63.70
1025;DHT22;501;48.214;11.350;2022-09-27T05:13:05;11.00;63.10
1025;DHT22;501;48.214;11.350;2022-09-27T05:15:31;11.00;62.40
1025;DHT22;501;48.214;11.350;2022-09-27T05:17:57;11.00;62.60
1025;DHT22;501;48.214;11.350;2022-09-27T05:20:23;11.00;63.30
1025;DHT22;501;48.214;11.350;2022-09-27T05:22:50;11.00;62.30
1025;DHT22;501;48.214;11.350;2022-09-27T05:25:17;10.90;63.70
1025;DHT22;501;48.214;11.350;2022-09-27T05:27:43;10.90;63.50
1025;DHT22;501;48.214;11.350;2022-09-27T05:30:09;10.90;62.10
1025;DHT22;501;48.214;11.350;2022-09-27T05:32:35;10.90;61.60
1025;DHT22;501;48.214;11.350;2022-09-27T05:35:06;10.90;62.30
1025;DHT22;501;48.214;11.350;2022-09-27T05:37:32;10.90;60.30
1025;DHT22;501;48.214;11.350;2022-09-27T05:39:58;10.90;59.90
1025;DHT22;501;48.214;11.350;2022-09-27T05:42:23;10.80;61.00
1025;DHT22;501;48.214;11.350;2022-09-27T05:44:49;10.90;61.10
1025;DHT22;501;48.214;11.350;2022-09-27T05:47:15;10.90;62.50
1025;DHT22;501;48.214;11.350;2022-09-27T05:49:41;10.80;61.90
1025;DHT22;501;48.214;11.350;2022-09-27T05:52:06;10.90;61.70
1025;DHT22;501;48.214;11.350;2022-09-27T05:54:33;10.90;62.30
1025;DHT22;501;48.214;11.350;2022-09-27T05:56:58;10.90;62.00
1025;DHT22;501;48.214;11.350;2022-09-27T05:59:25;10.90;59.20
1025;DHT22;501;48.214;11.350;2022-09-27T06:01:51;11.00;62.00
1025;DHT22;501;48.214;11.350;2022-09-27T06:04:18;11.00;60.80
1025;DHT22;501;48.214;11.350;2022-09-27T06:06:44;11.00;62.10
1025;DHT22;501;48.214;11.350;2022-09-27T06:09:14;11.00;62.80
1025;DHT22;501;48.214;11.350;2022-09-27T06:11:41;11.00;62.70
1025;DHT22;501;48.214;11.350;2022-09-27T06:14:08;11.00;63.50
1025;DHT22;501;48.214;11.350;2022-09-27T06:16:34;11.00;65.10
1025;DHT22;501;48.214;11.350;2022-09-27T06:18:59;11.00;64.10
1025;DHT22;501;48.214;11.350;2022-09-27T06:21:25;11.10;64.70
1025;DHT22;501;48.214;11.350;2022-09-27T06:23:53;11.00;63.40
1025;DHT22;501;48.214;11.350;2022-09-27T06:26:19;11.00;61.70
1025;DHT22;501;48.214;11.350;2022-09-27T06:28:46;11.00;62.60
1025;DHT22;501;48.214;11.350;2022-09-27T06:31:12;11.00;62.30
1025;DHT22;501;48.214;11.350;2022-09-27T06:33:38;11.00;63.00
1025;DHT22;501;48.214;11.350;2022-09-27T06:36:06;11.00;63.70
1025;DHT22;501;48.214;11.350;2022-09-27T06:38:32;11.00;63.80
1025;DHT22;501;48.214;11.350;2022-09-27T06:41:01;11.00;63.40
1025;DHT22;501;48.214;11.350;2022-09-27T06:43:27;11.00;60.30
1025;DHT22;501;48.214;11.350;2022-09-27T06:45:52;11.00;62.10
1025;DHT22;501;48.214;11.350;2022-09-27T06:48:19;11.10;62.40
1025;DHT22;501;48.214;11.350;2022-09-27T06:50:45;11.10;62.30
1025;DHT22;501;48.214;11.350;2022-09-27T06:53:13;11.10;60.70
1025;DHT22;501;48.214;11.350;2022-09-27T06:55:39;11.20;60.80
1025;DHT22;501;48.214;11.350;2022-09-27T06:58:05;11.20;59.90
1025;DHT22;501;48.214;11.350;2022-09-27T07:00:50;11.20;59.20
1025;DHT22;501;48.214;11.350;2022-09-27T07:03:17;11.30;58.70
1025;DHT22;501;48.214;11.350;2022-09-27T07:05:57;11.30;58.70
1025;DHT22;501;48.214;11.350;2022-09-27T07:08:23;11.30;56.00
1025;DHT22;501;48.214;11.350;2022-09-27T07:10:50;11.40;55.50
1025;DHT22;501;48.214;11.350;2022-09-27T07:13:17;11.40;55.10
1025;DHT22;501;48.214;11.350;2022-09-27T07:15:43;11.50;52.30
1025;DHT22;501;48.214;11.350;2022-09-27T07:18:09;11.50;52.40
1025;DHT22;501;48.214;11.350;2022-09-27T07:20:35;11.50;54.60
1025;DHT22;501;48.214;11.350;2022-09-27T07:23:05;11.60;53.80
1025;DHT22;501;48.214;11.350;2022-09-27T07:25:32;11.60;53.30
1025;DHT22;501;48.214;11.350;2022-09-27T07:28:07;11.60;51.70
1025;DHT22;501;48.214;11.350;2022-09-27T07:30:33;11.60;51.30
1025;DHT22;501;48.214;11.350;2022-09-27T07:33:01;11.60;53.70
1025;DHT22;501;48.214;11.350;2022-09-27T07:35:27;11.60;55.90
1025;DHT22;501;48.214;11.350;2022-09-27T07:37:55;11.60;55.30
1025;DHT22;501;48.214;11.350;2022-09-27T07:40:21;11.60;55.20
1025;DHT22;501;48.214;11.350;2022-09-27T07:42:47;11.60;57.70
1025;DHT22;501;48.214;11.350;2022-09-27T07:45:12;11.60;59.80
1025;DHT22;501;48.214;11.350;2022-09-27T07:47:39;11.70;60.00
1025;DHT22;501;48.214;11.350;2022-09-27T07:50:06;11.80;59.20
1025;DHT22;501;48.214;11.350;2022-09-27T07:52:41;11.90;55.50
1025;DHT22;501;48.214;11.350;2022-09-27T07:55:08;11.70;54.70
1025;DHT22;501;48.214;11.350;2022-09-27T07:57:35;11.60;52.40
1025;DHT22;501;48.214;11.350;2022-09-27T08:00:04;11.40;50.50
1025;DHT22;501;48.214;11.350;2022-09-27T08:02:30;11.20;51.20
1025;DHT22;501;48.214;11.350;2022-09-27T08:05:00;11.00;52.50
1025;DHT22;501;48.214;11.350;2022-09-27T08:07:27;11.00;54.30
1025;DHT22;501;48.214;11.350;2022-09-27T08:09:52;10.90;54.80
1025;DHT22;501;48.214;11.350;2022-09-27T08:12:18;10.80;57.00
1025;DHT22;501;48.214;11.350;2022-09-27T08:14:47;10.80;58.30
1025;DHT22;501;48.214;11.350;2022-09-27T08:17:13;10.80;59.10
1025;DHT22;501;48.214;11.350;2022-09-27T08:19:39;10.90;61.60
1025;DHT22;501;48.214;11.350;2022-09-27T08:22:06;10.90;59.20
1025;DHT22;501;48.214;11.350;2022-09-27T08:24:32;10.90;60.40
1025;DHT22;501;48.214;11.350;2022-09-27T08:26:58;10.90;61.00
1025;DHT22;501;48.214;11.350;2022-09-27T08:29:24;10.90;58.60
1025;DHT22;501;48.214;11.350;2022-09-27T08:31:51;10.90;58.60
1025;DHT22;501;48.214;11.350;2022-09-27T08:34:16;10.80;58.20
1025;DHT22;501;48.214;11.350;2022-09-27T08:36:42;10.80;58.30
1025;DHT22;501;48.214;11.350;2022-09-27T08:39:08;10.80;58.30
1025;DHT22;501;48.214;11.350;2022-09-27T08:41:46;10.90;59.30
1025;DHT22;501;48.214;11.350;2022-09-27T08:44:42;10.90;59.20
1025;DHT22;501;48.214;11.350;2022-09-27T08:47:28;10.90;59.60
1025;DHT22;501;48.214;11.350;2022-09-27T08:53:05;11.10;58.60
1025;DHT22;501;48.214;11.350;2022-09-27T08:55:44;11.20;58.60
1025;DHT22;501;48.214;11.350;2022-09-27T08:58:18;11.20;58.80
1025;DHT22;501;48.214;11.350;2022-09-27T09:00:46;11.20;57.60
1025;DHT22;501;48.214;11.350;2022-09-27T09:03:18;11.30;57.60
1025;DHT22;501;48.214;11.350;2022-09-27T09:06:04;11.30;57.20
1025;DHT22;501;48.214;11.350;2022-09-27T09:08:38;11.30;58.40
1025;DHT22;501;48.214;11.350;2022-09-27T09:11:12;11.40;56.90
1025;DHT22;501;48.214;11.350;2022-09-27T09:14:23;11.40;56.00
1025;DHT22;501;48.214;11.350;2022-09-27T09:17:16;11.50;56.80
1025;DHT22;501;48.214;11.350;2022-09-27T09:38:47;11.90;48.20
1025;DHT22;501;48.214;11.350;2022-09-27T09:41:14;11.80;46.70
1025;DHT22;501;48.214;11.350;2022-09-27T09:43:51;11.70;47.30
1025;DHT22;501;48.214;11.350;2022-09-27T09:46:29;11.70;46.80
1025;DHT22;501;48.214;11.350;2022-09-27T09:51:46;11.70;43.90
1025;DHT22;501;48.214;11.350;2022-09-27T09:54:21;11.70;46.40
1025;DHT22;501;48.214;11.350;2022-09-27T09:56:55;11.70;44.50
1025;DHT22;501;48.214;11.350;2022-09-27T09:59:37;11.70;43.90
1025;DHT22;501;48.214;11.350;2022-09-27T10:02:38;11.60;45.70
1025;DHT22;501;48.214;11.350;2022-09-27T10:05:05;11.70;45.60
1025;DHT22;501;48.214;11.350;2022-09-27T10:07:32;11.70;47.00
1025;DHT22;501;48.214;11.350;2022-09-27T10:10:02;11.80;45.20
1025;DHT22;501;48.214;11.350;2022-09-27T10:12:29;11.90;44.70
1025;DHT22;501;48.214;11.350;2022-09-27T10:14:58;11.90;44.60
1025;DHT22;501;48.214;11.350;2022-09-27T10:17:33;12.00;43.90
1025;DHT22;501;48.214;11.350;2022-09-27T10:20:02;12.00;44.30
1025;DHT22;501;48.214;11.350;2022-09-27T10:22:40;12.10;43.80
1025;DHT22;501;48.214;11.350;2022-09-27T10:25:08;12.10;44.80
1025;DHT22;501;48.214;11.350;2022-09-27T10:30:04;12.20;42.20
1025;DHT22;501;48.214;11.350;2022-09-27T10:32:32;12.30;40.70
1025;DHT22;501;48.214;11.350;2022-09-27T10:40:42;12.30;39.10
1025;DHT22;501;48.214;11.350;2022-09-27T10:43:30;12.30;40.10
1025;DHT22;501;48.214;11.350;2022-09-27T10:46:11;12.30;40.00
1025;DHT22;501;48.214;11.350;2022-09-27T10:48:38;12.30;40.60
1025;DHT22;501;48.214;11.350;2022-09-27T10:51:19;12.30;42.30
1025;DHT22;501;48.214;11.350;2022-09-27T10:53:47;12.40;42.30
1025;DHT22;501;48.214;11.350;2022-09-27T10:56:21;12.60;40.20
1025;DHT22;501;48.214;11.350;2022-09-27T10:58:47;12.60;38.80
1025;DHT22;501;48.214;11.350;2022-09-27T11:01:13;12.40;40.70
1025;DHT22;501;48.214;11.350;2022-09-27T11:03:51;12.30;42.30
1025;DHT22;501;48.214;11.350;2022-09-27T11:08:48;11.90;47.70
1025;DHT22;501;48.214;11.350;2022-09-27T11:11:24;11.80;48.50
1025;DHT22;501;48.214;11.350;2022-09-27T11:14:00;11.70;47.00
1025;DHT22;501;48.214;11.350;2022-09-27T11:19:20;11.60;50.40
1025;DHT22;501;48.214;11.350;2022-09-27T11:25:32;11.50;50.30
1025;DHT22;501;48.214;11.350;2022-09-27T11:31:36;11.60;49.80
1025;DHT22;501;48.214;11.350;2022-09-27T11:39:15;11.90;51.30
1025;DHT22;501;48.214;11.350;2022-09-27T11:48:02;12.20;46.60
1025;DHT22;501;48.214;11.350;2022-09-27T11:53:47;12.00;50.00
1025;DHT22;501;48.214;11.350;2022-09-27T11:56:32;11.80;48.30
1025;DHT22;501;48.214;11.350;2022-09-27T11:59:04;11.50;50.40
1025;DHT22;501;48.214;11.350;2022-09-27T12:07:41;11.10;56.50
1025;DHT22;501;48.214;11.350;2022-09-27T12:10:16;10.90;57.40
1025;DHT22;501;48.214;11.350;2022-09-27T12:12:44;10.90;61.00
1025;DHT22;501;48.214;11.350;2022-09-27T12:15:26;11.00;61.90
1025;DHT22;501;48.214;11.350;2022-09-27T12:18:43;11.00;60.40
1025;DHT22;501;48.214;11.350;2022-09-27T12:20:44;11.00;60.60
1025;DHT22;501;48.214;11.350;2022-09-27T12:23:17;11.20;63.10
1025;DHT22;501;48.214;11.350;2022-09-27T12:25:44;11.30;58.70
1025;DHT22;501;48.214;11.350;2022-09-27T12:28:18;11.50;58.90
1025;DHT22;501;48.214;11.350;2022-09-27T12:30:49;11.50;55.20
1025;DHT22;501;48.214;11.350;2022-09-27T12:33:28;11.60;55.30
1025;DHT22;501;48.214;11.350;2022-09-27T12:35:59;11.70;55.30
1025;DHT22;501;48.214;11.350;2022-09-27T12:38:46;11.80;58.30
1025;DHT22;501;48.214;11.350;2022-09-27T12:41:19;11.90;57.00
1025;DHT22;501;48.214;11.350;2022-09-27T12:43:49;12.10;59.40
1025;DHT22;501;48.214;11.350;2022-09-27T12:46:43;12.30;58.70
1025;DHT22;501;48.214;11.350;2022-09-27T12:50:02;12.50;55.20
1025;DHT22;501;48.214;11.350;2022-09-27T12:52:04;12.70;55.60
1025;DHT22;501;48.214;11.350;2022-09-27T12:57:26;12.90;52.50
1025;DHT22;501;48.214;11.350;2022-09-27T13:13:33;13.40;56.90
1025;DHT22;501;48.214;11.350;2022-09-27T13:16:01;13.80;59.60
1025;DHT22;501;48.214;11.350;2022-09-27T13:18:31;14.40;46.50
1025;DHT22;501;48.214;11.350;2022-09-27T13:21:08;14.90;43.80
1025;DHT22;501;48.214;11.350;2022-09-27T13:28:34;15.50;37.70
1025;DHT22;501;48.214;11.350;2022-09-27T13:31:08;15.70;38.00
1025;DHT22;501;48.214;11.350;2022-09-27T13:33:50;15.80;36.30
1025;DHT22;501;48.214;11.350;2022-09-27T13:49:36;17.40;31.40
1025;DHT22;501;48.214;11.350;2022-09-27T13:52:18;17.50;30.80
1025;DHT22;501;48.214;11.350;2022-09-27T13:54:53;17.70;30.50
1025;DHT22;501;48.214;11.350;2022-09-27T14:00:29;17.50;28.90
1025;DHT22;501;48.214;11.350;2022-09-27T14:05:47;16.50;28.80
1025;DHT22;501;48.214;11.350;2022-09-27T14:08:34;16.10;30.10
1025;DHT22;501;48.214;11.350;2022-09-27T14:11:03;15.60;30.40
1025;DHT22;501;48.214;11.350;2022-09-27T14:13:30;15.40;30.80
1025;DHT22;501;48.214;11.350;2022-09-27T14:16:00;15.10;32.70
1025;DHT22;501;48.214;11.350;2022-09-27T14:18:28;14.80;32.60
1025;DHT22;501;48.214;11.350;2022-09-27T14:21:16;14.50;32.90
1025;DHT22;501;48.214;11.350;2022-09-27T14:23:42;14.30;34.70
1025;DHT22;501;48.214;11.350;2022-09-27T14:26:22;14.10;34.50
1025;DHT22;501;48.214;11.350;2022-09-27T14:28:48;14.00;35.70
1025;DHT22;501;48.214;11.350;2022-09-27T14:31:16;13.80;35.10
1025;DHT22;501;48.214;11.350;2022-09-27T14:33:43;13.70;33.90
1025;DHT22;501;48.214;11.350;2022-09-27T14:36:31;13.40;34.90
1025;DHT22;501;48.214;11.350;2022-09-27T14:39:24;13.10;34.20
1025;DHT22;501;48.214;11.350;2022-09-27T14:41:54;12.90;35.90
1025;DHT22;501;48.214;11.350;2022-09-27T14:44:20;12.90;38.90
1025;DHT22;501;48.214;11.350;2022-09-27T14:46:46;12.90;37.60
1025;DHT22;501;48.214;11.350;2022-09-27T14:49:22;12.80;35.80
1025;DHT22;501;48.214;11.350;2022-09-27T14:51:55;12.80;38.60
1025;DHT22;501;48.214;11.350;2022-09-27T14:54:28;12.80;37.90
1025;DHT22;501;48.214;11.350;2022-09-27T14:56:56;12.80;36.60
1025;DHT22;501;48.214;11.350;2022-09-27T14:59:25;12.70;38.20
1025;DHT22;501;48.214;11.350;2022-09-27T15:01:56;12.70;39.30
1025;DHT22;501;48.214;11.350;2022-09-27T15:04:25;12.70;38.10
1025;DHT22;501;48.214;11.350;2022-09-27T15:06:52;12.70;39.00
1025;DHT22;501;48.214;11.350;2022-09-27T15:09:19;12.70;39.00
1025;DHT22;501;48.214;11.350;2022-09-27T15:11:48;12.70;40.00
1025;DHT22;501;48.214;11.350;2022-09-27T15:14:17;12.70;38.90
1025;DHT22;501;48.214;11.350;2022-09-27T15:16:48;12.70;40.10
1025;DHT22;501;48.214;11.350;2022-09-27T15:19:26;12.60;40.10
1025;DHT22;501;48.214;11.350;2022-09-27T15:21:54;12.50;40.60
1025;DHT22;501;48.214;11.350;2022-09-27T15:24:39;12.40;43.90
1025;DHT22;501;48.214;11.350;2022-09-27T15:27:19;12.40;42.30
1025;DHT22;501;48.214;11.350;2022-09-27T15:29:51;12.30;43.90
1025;DHT22;501;48.214;11.350;2022-09-27T15:32:23;12.20;43.70
1025;DHT22;501;48.214;11.350;2022-09-27T15:34:50;12.10;45.10
1025;DHT22;501;48.214;11.350;2022-09-27T15:37:34;12.00;43.90
1025;DHT22;501;48.214;11.350;2022-09-27T15:42:58;11.90;45.40
1025;DHT22;501;48.214;11.350;2022-09-27T15:45:29;11.90;47.00
1025;DHT22;501;48.214;11.350;2022-09-27T15:47:55;11.80;48.40
1025;DHT22;501;48.214;11.350;2022-09-27T15:52:53;11.60;48.90
1025;DHT22;501;48.214;11.350;2022-09-27T15:55:25;11.40;50.90
1025;DHT22;501;48.214;11.350;2022-09-27T15:58:06;11.30;54.20
1025;DHT22;501;48.214;11.350;2022-09-27T16:00:36;11.20;56.00
1025;DHT22;501;48.214;11.350;2022-09-27T16:03:01;11.20;57.40
1025;DHT22;501;48.214;11.350;2022-09-27T16:05:27;11.20;58.00
1025;DHT22;501;48.214;11.350;2022-09-27T16:07:54;11.20;58.70
1025;DHT22;501;48.214;11.350;2022-09-27T16:10:24;11.20;60.10
1025;DHT22;501;48.214;11.350;2022-09-27T16:12:51;11.20;60.90
1025;DHT22;501;48.214;11.350;2022-09-27T16:15:17;11.20;60.70
1025;DHT22;501;48.214;11.350;2022-09-27T16:17:43;11.20;60.80
1025;DHT22;501;48.214;11.350;2022-09-27T16:20:19;11.30;60.60
1025;DHT22;501;48.214;11.350;2022-09-27T16:22:45;11.20;59.50
1025;DHT22;501;48.214;11.350;2022-09-27T16:25:11;11.20;60.00
1025;DHT22;501;48.214;11.350;2022-09-27T16:27:37;11.20;60.70
1025;DHT22;501;48.214;11.350;2022-09-27T16:30:03;11.20;60.20
1025;DHT22;501;48.214;11.350;2022-09-27T16:32:29;11.20;60.70
1025;DHT22;501;48.214;11.350;2022-09-27T16:34:54;11.20;60.80
1025;DHT22;501;48.214;11.350;2022-09-27T16:37:21;11.30;60.30
1025;DHT22;501;48.214;11.350;2022-09-27T16:39:47;11.30;60.20
1025;DHT22;501;48.214;11.350;2022-09-27T16:42:13;11.30;60.80
1025;DHT22;501;48.214;11.350;2022-09-27T16:44:39;11.30;62.30
1025;DHT22;501;48.214;11.350;2022-09-27T16:47:05;11.30;60.20
1025;DHT22;501;48.214;11.350;2022-09-27T16:49:33;11.20;58.60
1025;DHT22;501;48.214;11.350;2022-09-27T16:52:17;11.10;58.50
1025;DHT22;501;48.214;11.350;2022-09-27T16:54:43;11.00;59.80
1025;DHT22;501;48.214;11.350;2022-09-27T16:57:08;11.00;61.10
1025;DHT22;501;48.214;11.350;2022-09-27T16:59:34;10.90;61.20
1025;DHT22;501;48.214;11.350;2022-09-27T17:02:00;10.90;61.60
1025;DHT22;501;48.214;11.350;2022-09-27T17:04:27;10.90;64.70
1025;DHT22;501;48.214;11.350;2022-09-27T17:06:53;10.80;62.10
1025;DHT22;501;48.214;11.350;2022-09-27T17:09:20;10.80;62.80
1025;DHT22;501;48.214;11.350;2022-09-27T17:11:46;10.80;62.50
1025;DHT22;501;48.214;11.350;2022-09-27T17:14:12;10.80;62.80
1025;DHT22;501;48.214;11.350;2022-09-27T17:16:45;10.80;64.10
1025;DHT22;501;48.214;11.350;2022-09-27T17:19:12;10.70;63.70
1025;DHT22;501;48.214;11.350;2022-09-27T17:21:38;10.80;64.50
1025;DHT22;501;48.214;11.350;2022-09-27T17:24:05;10.70;63.80
1025;DHT22;501;48.214;11.350;2022-09-27T17:26:30;10.80;62.10
1025;DHT22;501;48.214;11.350;2022-09-27T17:28:58;10.70;59.10
1025;DHT22;501;48.214;11.350;2022-09-27T17:31:26;10.70;61.10
1025;DHT22;501;48.214;11.350;2022-09-27T17:33:52;10.70;62.00
1025;DHT22;501;48.214;11.350;2022-09-27T17:36:20;10.60;62.30
1025;DHT22;501;48.214;11.350;2022-09-27T17:38:48;10.70;62.50
1025;DHT22;501;48.214;11.350;2022-09-27T17:41:16;10.70;64.00
1025;DHT22;501;48.214;11.350;2022-09-27T17:43:43;10.70;64.90
1025;DHT22;501;48.214;11.350;2022-09-27T17:46:20;10.70;64.70
1025;DHT22;501;48.214;11.350;2022-09-27T17:48:47;10.70;66.00
1025;DHT22;501;48.214;11.350;2022-09-27T17:51:36;10.80;64.40
1025;DHT22;501;48.214;11.350;2022-09-27T17:54:02;10.80;64.00
1025;DHT22;501;48.214;11.350;2022-09-27T17:56:29;10.80;63.10
1025;DHT22;501;48.214;11.350;2022-09-27T17:58:57;10.70;63.30
1025;DHT22;501;48.214;11.350;2022-09-27T18:01:24;10.80;64.00
1025;DHT22;501;48.214;11.350;2022-09-27T18:03:55;10.80;63.40
1025;DHT22;501;48.214;11.350;2022-09-27T18:06:22;10.70;63.90
1025;DHT22;501;48.214;11.350;2022-09-27T18:08:48;10.80;63.60
1025;DHT22;501;48.214;11.350;2022-09-27T18:11:17;10.70;62.30
1025;DHT22;501;48.214;11.350;2022-09-27T18:13:43;10.70;62.50
1025;DHT22;501;48.214;11.350;2022-09-27T18:16:15;10.70;61.70
1025;DHT22;501;48.214;11.350;2022-09-27T18:18:44;10.70;61.10
1025;DHT22;501;48.214;11.350;2022-09-27T18:21:15;10.60;61.50
1025;DHT22;501;48.214;11.350;2022-09-27T18:23:43;10.60;61.10
1025;DHT22;501;48.214;11.350;2022-09-27T18:26:09;10.50;61.60
1025;DHT22;501;48.214;11.350;2022-09-27T18:28:40;10.50;62.30
1025;DHT22;501;48.214;11.350;2022-09-27T18:31:11;10.50;63.40
1025;DHT22;501;48.214;11.350;2022-09-27T18:33:38;10.50;63.20
1025;DHT22;501;48.214;11.350;2022-09-27T18:36:07;10.50;61.80
1025;DHT22;501;48.214;11.350;2022-09-27T18:38:40;10.50;61.40
1025;DHT22;501;48.214;11.350;2022-09-27T18:41:15;10.50;61.40
1025;DHT22;501;48.214;11.350;2022-09-27T18:43:47;10.40;61.80